sensor_id;sensor_type;location;lat;lon;timestamp;P1;durP1;ratioP1;P2;durP2;ratioP2
42018;SDS011;27703;51.980;5.848;2023-04-01T00:00:51;4.05;;;0.93;;
42018;SDS011;27703;51.980;5.848;2023-04-01T00:03:18;5.20;;;1.10;;
42018;SDS011;27703;51.980;5.848;2023-04-01T00:05:45;3.10;;;1.00;;
42018;SDS011;27703;51.980;5.848;2023-04-01T00:08:11;3.15;;;0.95;;
42018;SDS011;27703;51.980;5.848;2023-04-01T00:10:37;6.50;;;1.98;;
42018;SDS011;27703;51.980;5.848;2023-04-01T00:13:02;4.05;;;1.50;;
42018;SDS011;27703;51.980;5.848;2023-04-01T00:15:28;4.00;;;1.30;;
42018;SDS011;27703;51.980;5.848;2023-04-01T00:17:54;4.05;;;1.38;;
42018;SDS011;27703;51.980;5.848;2023-04-01T00:20:20;7.32;;;2.03;;
42018;SDS011;27703;51.980;5.848;2023-04-01T00:22:46;8.30;;;2.42;;
42018;SDS011;27703;51.980;5.848;2023-04-01T00:25:11;7.60;;;1.80;;
42018;SDS011;27703;51.980;5.848;2023-04-01T00:27:37;5.72;;;1.38;;
42018;SDS011;27703;51.980;5.848;2023-04-01T00:30:03;2.63;;;1.90;;
42018;SDS011;27703;51.980;5.848;2023-04-01T00:32:29;5.63;;;2.20;;
42018;SDS011;27703;51.980;5.848;2023-04-01T00:34:56;6.43;;;2.90;;
42018;SDS011;27703;51.980;5.848;2023-04-01T00:37:23;4.95;;;2.60;;
42018;SDS011;27703;51.980;5.848;2023-04-01T00:39:49;5.82;;;3.15;;
42018;SDS011;27703;51.980;5.848;2023-04-01T00:42:15;7.70;;;4.10;;
42018;SDS011;27703;51.980;5.848;2023-04-01T00:44:41;7.60;;;4.10;;
42018;SDS011;27703;51.980;5.848;2023-04-01T00:47:06;5.88;;;3.22;;
42018;SDS011;27703;51.980;5.848;2023-04-01T00:49:36;8.90;;;5.07;;
42018;SDS011;27703;51.980;5.848;2023-04-01T00:52:05;7.45;;;4.63;;
42018;SDS011;27703;51.980;5.848;2023-04-01T00:54:33;9.50;;;5.80;;
42018;SDS011;27703;51.980;5.848;2023-04-01T00:57:01;10.80;;;5.78;;
42018;SDS011;27703;51.980;5.848;2023-04-01T00:59:32;11.07;;;6.75;;
42018;SDS011;27703;51.980;5.848;2023-04-01T01:02:02;12.70;;;8.43;;
42018;SDS011;27703;51.980;5.848;2023-04-01T01:04:29;11.80;;;7.63;;
42018;SDS011;27703;51.980;5.848;2023-04-01T01:09:53;14.63;;;9.82;;
42018;SDS011;27703;51.980;5.848;2023-04-01T01:12:44;16.48;;;12.15;;
42018;SDS011;27703;51.980;5.848;2023-04-01T01:15:26;17.13;;;11.23;;
42018;SDS011;27703;51.980;5.848;2023-04-01T01:18:18;15.80;;;11.02;;
42018;SDS011;27703;51.980;5.848;2023-04-01T01:29:22;20.30;;;13.80;;
42018;SDS011;27703;51.980;5.848;2023-04-01T01:37:45;21.35;;;13.43;;
42018;SDS011;27703;51.980;5.848;2023-04-01T01:40:14;28.08;;;14.95;;
42018;SDS011;27703;51.980;5.848;2023-04-01T01:42:43;20.13;;;13.20;;
42018;SDS011;27703;51.980;5.848;2023-04-01T01:45:16;22.27;;;14.15;;
42018;SDS011;27703;51.980;5.848;2023-04-01T01:47:45;26.30;;;14.10;;
42018;SDS011;27703;51.980;5.848;2023-04-01T01:50:11;20.98;;;13.27;;
42018;SDS011;27703;51.980;5.848;2023-04-01T01:52:38;21.13;;;13.60;;
42018;SDS011;27703;51.980;5.848;2023-04-01T01:55:22;13.15;;;8.43;;
42018;SDS011;27703;51.980;5.848;2023-04-01T01:58:00;17.00;;;7.63;;
42018;SDS011;27703;51.980;5.848;2023-04-01T02:00:31;16.48;;;6.80;;
42018;SDS011;27703;51.980;5.848;2023-04-01T02:02:58;25.73;;;8.90;;
42018;SDS011;27703;51.980;5.848;2023-04-01T02:05:26;16.10;;;7.53;;
42018;SDS011;27703;51.980;5.848;2023-04-01T02:07:57;17.10;;;8.60;;
42018;SDS011;27703;51.980;5.848;2023-04-01T02:10:31;23.02;;;8.93;;
42018;SDS011;27703;51.980;5.848;2023-04-01T02:13:01;26.05;;;9.75;;
42018;SDS011;27703;51.980;5.848;2023-04-01T02:15:33;19.60;;;7.25;;
42018;SDS011;27703;51.980;5.848;2023-04-01T02:18:06;30.63;;;8.27;;
42018;SDS011;27703;51.980;5.848;2023-04-01T02:20:32;16.67;;;5.88;;
42018;SDS011;27703;51.980;5.848;2023-04-01T02:22:58;15.45;;;5.43;;
42018;SDS011;27703;51.980;5.848;2023-04-01T02:25:34;24.83;;;6.13;;
42018;SDS011;27703;51.980;5.848;2023-04-01T02:28:02;16.27;;;4.90;;
42018;SDS011;27703;51.980;5.848;2023-04-01T02:30:31;24.58;;;6.30;;
42018;SDS011;27703;51.980;5.848;2023-04-01T02:32:58;20.92;;;6.18;;
42018;SDS011;27703;51.980;5.848;2023-04-01T02:35:24;24.02;;;6.80;;
42018;SDS011;27703;51.980;5.848;2023-04-01T02:37:50;13.73;;;6.35;;
42018;SDS011;27703;51.980;5.848;2023-04-01T02:40:17;19.02;;;6.50;;
42018;SDS011;27703;51.980;5.848;2023-04-01T02:42:43;19.40;;;5.82;;
42018;SDS011;27703;51.980;5.848;2023-04-01T02:45:10;16.55;;;4.80;;
42018;SDS011;27703;51.980;5.848;2023-04-01T02:47:36;13.52;;;4.40;;
42018;SDS011;27703;51.980;5.848;2023-04-01T02:50:01;13.10;;;5.38;;
42018;SDS011;27703;51.980;5.848;2023-04-01T02:52:28;11.80;;;4.07;;
42018;SDS011;27703;51.980;5.848;2023-04-01T02:54:54;11.63;;;4.40;;
42018;SDS011;27703;51.980;5.848;2023-04-01T02:57:21;13.98;;;4.72;;
42018;SDS011;27703;51.980;5.848;2023-04-01T02:59:47;15.48;;;4.72;;
42018;SDS011;27703;51.980;5.848;2023-04-01T03:02:13;9.13;;;3.80;;
42018;SDS011;27703;51.980;5.848;2023-04-01T03:04:39;9.32;;;3.75;;
42018;SDS011;27703;51.980;5.848;2023-04-01T03:07:05;12.15;;;4.57;;
42018;SDS011;27703;51.980;5.848;2023-04-01T03:09:30;7.72;;;4.50;;
42018;SDS011;27703;51.980;5.848;2023-04-01T03:11:56;10.23;;;5.43;;
42018;SDS011;27703;51.980;5.848;2023-04-01T03:14:22;11.43;;;5.35;;
42018;SDS011;27703;51.980;5.848;2023-04-01T03:16:47;11.32;;;5.05;;
42018;SDS011;27703;51.980;5.848;2023-04-01T03:19:13;10.20;;;5.78;;
42018;SDS011;27703;51.980;5.848;2023-04-01T03:21:38;10.55;;;5.32;;
42018;SDS011;27703;51.980;5.848;2023-04-01T03:24:04;8.60;;;5.93;;
42018;SDS011;27703;51.980;5.848;2023-04-01T03:26:30;7.53;;;4.82;;
42018;SDS011;27703;51.980;5.848;2023-04-01T03:28:55;8.00;;;4.95;;
42018;SDS011;27703;51.980;5.848;2023-04-01T03:31:21;10.75;;;6.15;;
42018;SDS011;27703;51.980;5.848;2023-04-01T03:33:47;9.00;;;5.45;;
42018;SDS011;27703;51.980;5.848;2023-04-01T03:36:13;8.70;;;5.30;;
42018;SDS011;27703;51.980;5.848;2023-04-01T03:38:42;10.07;;;5.88;;
42018;SDS011;27703;51.980;5.848;2023-04-01T03:41:12;9.88;;;5.63;;
42018;SDS011;27703;51.980;5.848;2023-04-01T03:43:41;12.20;;;6.07;;
42018;SDS011;27703;51.980;5.848;2023-04-01T03:46:07;13.65;;;7.35;;
42018;SDS011;27703;51.980;5.848;2023-04-01T03:48:33;16.10;;;7.95;;
42018;SDS011;27703;51.980;5.848;2023-04-01T03:50:59;11.50;;;6.75;;
42018;SDS011;27703;51.980;5.848;2023-04-01T03:53:25;14.45;;;6.82;;
42018;SDS011;27703;51.980;5.848;2023-04-01T03:55:51;13.70;;;7.18;;
42018;SDS011;27703;51.980;5.848;2023-04-01T03:58:17;9.48;;;6.80;;
42018;SDS011;27703;51.980;5.848;2023-04-01T04:00:43;12.27;;;7.43;;
42018;SDS011;27703;51.980;5.848;2023-04-01T04:03:08;10.40;;;7.35;;
42018;SDS011;27703;51.980;5.848;2023-04-01T04:05:34;17.55;;;8.23;;
42018;SDS011;27703;51.980;5.848;2023-04-01T04:08:00;9.10;;;6.78;;
42018;SDS011;27703;51.980;5.848;2023-04-01T04:10:25;15.27;;;8.00;;
42018;SDS011;27703;51.980;5.848;2023-04-01T04:12:51;14.75;;;8.32;;
42018;SDS011;27703;51.980;5.848;2023-04-01T04:15:17;11.73;;;8.23;;
42018;SDS011;27703;51.980;5.848;2023-04-01T04:17:44;11.85;;;6.97;;
42018;SDS011;27703;51.980;5.848;2023-04-01T04:20:10;16.35;;;8.00;;
42018;SDS011;27703;51.980;5.848;2023-04-01T04:22:36;12.57;;;8.05;;
42018;SDS011;27703;51.980;5.848;2023-04-01T04:25:02;12.13;;;8.20;;
42018;SDS011;27703;51.980;5.848;2023-04-01T04:27:27;13.55;;;8.65;;
42018;SDS011;27703;51.980;5.848;2023-04-01T04:29:53;15.82;;;8.50;;
42018;SDS011;27703;51.980;5.848;2023-04-01T04:32:19;12.15;;;8.05;;
42018;SDS011;27703;51.980;5.848;2023-04-01T04:34:44;14.50;;;7.80;;
42018;SDS011;27703;51.980;5.848;2023-04-01T04:37:10;13.25;;;7.95;;
42018;SDS011;27703;51.980;5.848;2023-04-01T04:39:35;12.75;;;8.45;;
42018;SDS011;27703;51.980;5.848;2023-04-01T04:42:01;12.98;;;8.20;;
42018;SDS011;27703;51.980;5.848;2023-04-01T04:44:26;16.45;;;9.20;;
42018;SDS011;27703;51.980;5.848;2023-04-01T04:46:52;12.68;;;8.73;;
42018;SDS011;27703;51.980;5.848;2023-04-01T04:49:17;13.85;;;9.35;;
42018;SDS011;27703;51.980;5.848;2023-04-01T04:51:43;15.45;;;9.65;;
42018;SDS011;27703;51.980;5.848;2023-04-01T04:54:09;14.80;;;10.30;;
42018;SDS011;27703;51.980;5.848;2023-04-01T04:56:35;14.00;;;9.77;;
42018;SDS011;27703;51.980;5.848;2023-04-01T04:59:00;15.55;;;9.90;;
42018;SDS011;27703;51.980;5.848;2023-04-01T05:01:26;17.38;;;11.68;;
42018;SDS011;27703;51.980;5.848;2023-04-01T05:03:51;18.25;;;10.68;;
42018;SDS011;27703;51.980;5.848;2023-04-01T05:06:17;15.50;;;9.57;;
42018;SDS011;27703;51.980;5.848;2023-04-01T05:08:43;15.07;;;9.90;;
42018;SDS011;27703;51.980;5.848;2023-04-01T05:11:14;9.48;;;7.60;;
42018;SDS011;27703;51.980;5.848;2023-04-01T05:13:43;10.50;;;6.95;;
42018;SDS011;27703;51.980;5.848;2023-04-01T05:16:10;11.52;;;8.63;;
42018;SDS011;27703;51.980;5.848;2023-04-01T05:18:42;9.40;;;7.30;;
42018;SDS011;27703;51.980;5.848;2023-04-01T05:21:08;15.52;;;9.75;;
42018;SDS011;27703;51.980;5.848;2023-04-01T05:23:35;15.38;;;9.60;;
42018;SDS011;27703;51.980;5.848;2023-04-01T05:26:09;13.52;;;8.00;;
42018;SDS011;27703;51.980;5.848;2023-04-01T05:28:39;8.55;;;5.88;;
42018;SDS011;27703;51.980;5.848;2023-04-01T05:31:05;9.65;;;6.22;;
42018;SDS011;27703;51.980;5.848;2023-04-01T05:33:32;10.43;;;6.13;;
42018;SDS011;27703;51.980;5.848;2023-04-01T05:36:08;7.75;;;4.68;;
42018;SDS011;27703;51.980;5.848;2023-04-01T05:38:35;8.45;;;4.63;;
42018;SDS011;27703;51.980;5.848;2023-04-01T05:41:01;5.43;;;3.28;;
42018;SDS011;27703;51.980;5.848;2023-04-01T05:43:27;4.85;;;3.47;;
42018;SDS011;27703;51.980;5.848;2023-04-01T05:45:54;6.03;;;3.28;;
42018;SDS011;27703;51.980;5.848;2023-04-01T05:48:20;5.72;;;3.08;;
42018;SDS011;27703;51.980;5.848;2023-04-01T05:50:46;4.57;;;2.78;;
42018;SDS011;27703;51.980;5.848;2023-04-01T05:53:11;4.43;;;1.77;;
42018;SDS011;27703;51.980;5.848;2023-04-01T05:55:37;6.45;;;3.65;;
42018;SDS011;27703;51.980;5.848;2023-04-01T05:58:02;5.50;;;3.38;;
42018;SDS011;27703;51.980;5.848;2023-04-01T06:00:28;4.93;;;2.85;;
42018;SDS011;27703;51.980;5.848;2023-04-01T06:02:54;7.50;;;3.42;;
42018;SDS011;27703;51.980;5.848;2023-04-01T06:05:21;10.38;;;6.05;;
42018;SDS011;27703;51.980;5.848;2023-04-01T06:07:48;11.63;;;5.68;;
42018;SDS011;27703;51.980;5.848;2023-04-01T06:10:22;10.30;;;4.90;;
42018;SDS011;27703;51.980;5.848;2023-04-01T06:13:07;9.85;;;5.40;;
42018;SDS011;27703;51.980;5.848;2023-04-01T06:18:58;17.90;;;7.47;;
42018;SDS011;27703;51.980;5.848;2023-04-01T06:21:23;15.52;;;7.07;;
42018;SDS011;27703;51.980;5.848;2023-04-01T06:24:12;17.73;;;7.55;;
42018;SDS011;27703;51.980;5.848;2023-04-01T06:27:06;14.93;;;6.50;;
42018;SDS011;27703;51.980;5.848;2023-04-01T06:46:50;8.27;;;3.80;;
42018;SDS011;27703;51.980;5.848;2023-04-01T06:52:09;6.70;;;2.92;;
42018;SDS011;27703;51.980;5.848;2023-04-01T06:54:48;5.32;;;2.30;;
42018;SDS011;27703;51.980;5.848;2023-04-01T06:57:20;6.43;;;2.05;;
42018;SDS011;27703;51.980;5.848;2023-04-01T07:00:00;5.88;;;1.83;;
42018;SDS011;27703;51.980;5.848;2023-04-01T07:02:32;4.93;;;1.70;;
42018;SDS011;27703;51.980;5.848;2023-04-01T07:05:04;3.72;;;1.60;;
42018;SDS011;27703;51.980;5.848;2023-04-01T07:10:11;2.95;;;1.00;;
42018;SDS011;27703;51.980;5.848;2023-04-01T07:12:49;3.38;;;1.27;;
42018;SDS011;27703;51.980;5.848;2023-04-01T07:17:48;3.35;;;0.95;;
42018;SDS011;27703;51.980;5.848;2023-04-01T07:20:25;1.98;;;0.60;;
42018;SDS011;27703;51.980;5.848;2023-04-01T07:23:07;1.40;;;0.50;;
42018;SDS011;27703;51.980;5.848;2023-04-01T07:25:48;1.58;;;0.50;;
42018;SDS011;27703;51.980;5.848;2023-04-01T07:28:23;1.35;;;0.40;;
42018;SDS011;27703;51.980;5.848;2023-04-01T07:33:38;1.60;;;0.30;;
42018;SDS011;27703;51.980;5.848;2023-04-01T07:36:10;1.42;;;0.30;;
42018;SDS011;27703;51.980;5.848;2023-04-01T07:44:02;1.02;;;0.40;;
42018;SDS011;27703;51.980;5.848;2023-04-01T07:46:53;1.63;;;0.30;;
42018;SDS011;27703;51.980;5.848;2023-04-01T07:52:14;0.85;;;0.30;;
42018;SDS011;27703;51.980;5.848;2023-04-01T07:55:09;1.17;;;0.35;;
42018;SDS011;27703;51.980;5.848;2023-04-01T08:06:04;1.55;;;0.52;;
42018;SDS011;27703;51.980;5.848;2023-04-01T08:14:41;1.33;;;0.50;;
42018;SDS011;27703;51.980;5.848;2023-04-01T08:17:30;0.80;;;0.30;;
42018;SDS011;27703;51.980;5.848;2023-04-01T08:20:13;0.93;;;0.30;;
42018;SDS011;27703;51.980;5.848;2023-04-01T08:22:45;0.60;;;0.20;;
42018;SDS011;27703;51.980;5.848;2023-04-01T08:25:19;0.50;;;0.20;;
42018;SDS011;27703;51.980;5.848;2023-04-01T08:27:53;2.72;;;0.40;;
42018;SDS011;27703;51.980;5.848;2023-04-01T08:35:58;0.55;;;0.10;;
42018;SDS011;27703;51.980;5.848;2023-04-01T08:41:20;0.50;;;0.13;;
42018;SDS011;27703;51.980;5.848;2023-04-01T08:58:20;0.65;;;0.30;;
42018;SDS011;27703;51.980;5.848;2023-04-01T09:00:53;0.90;;;0.30;;
42018;SDS011;27703;51.980;5.848;2023-04-01T09:08:58;1.23;;;0.45;;
42018;SDS011;27703;51.980;5.848;2023-04-01T09:14:40;1.00;;;0.30;;
42018;SDS011;27703;51.980;5.848;2023-04-01T09:19:59;1.30;;;0.30;;
42018;SDS011;27703;51.980;5.848;2023-04-01T09:22:46;0.77;;;0.30;;
42018;SDS011;27703;51.980;5.848;2023-04-01T09:33:31;1.55;;;0.30;;
42018;SDS011;27703;51.980;5.848;2023-04-01T09:39:26;1.00;;;0.40;;
42018;SDS011;27703;51.980;5.848;2023-04-01T09:47:13;0.90;;;0.30;;
42018;SDS011;27703;51.980;5.848;2023-04-01T09:52:42;1.52;;;0.50;;
42018;SDS011;27703;51.980;5.848;2023-04-01T09:55:21;1.27;;;0.50;;
42018;SDS011;27703;51.980;5.848;2023-04-01T10:00:51;1.77;;;0.60;;
42018;SDS011;27703;51.980;5.848;2023-04-01T10:03:37;2.08;;;0.60;;
42018;SDS011;27703;51.980;5.848;2023-04-01T10:06:31;1.10;;;0.40;;
42018;SDS011;27703;51.980;5.848;2023-04-01T10:12:14;2.08;;;0.77;;
42018;SDS011;27703;51.980;5.848;2023-04-01T10:26:09;3.20;;;1.92;;
42018;SDS011;27703;51.980;5.848;2023-04-01T10:34:19;5.20;;;2.75;;
42018;SDS011;27703;51.980;5.848;2023-04-01T10:37:49;4.20;;;2.63;;
42018;SDS011;27703;51.980;5.848;2023-04-01T10:40:25;5.03;;;2.75;;
42018;SDS011;27703;51.980;5.848;2023-04-01T10:43:42;6.22;;;3.80;;
42018;SDS011;27703;51.980;5.848;2023-04-01T10:52:40;6.13;;;4.50;;
42018;SDS011;27703;51.980;5.848;2023-04-01T10:55:37;6.55;;;4.35;;
42018;SDS011;27703;51.980;5.848;2023-04-01T10:58:31;10.38;;;5.20;;
42018;SDS011;27703;51.980;5.848;2023-04-01T11:01:22;6.28;;;3.78;;
42018;SDS011;27703;51.980;5.848;2023-04-01T11:07:00;6.45;;;4.30;;
42018;SDS011;27703;51.980;5.848;2023-04-01T11:35:19;2.80;;;1.60;;
42018;SDS011;27703;51.980;5.848;2023-04-01T11:43:29;1.35;;;0.60;;
42018;SDS011;27703;51.980;5.848;2023-04-01T11:48:45;2.00;;;0.50;;
42018;SDS011;27703;51.980;5.848;2023-04-01T11:51:32;1.98;;;0.45;;
42018;SDS011;27703;51.980;5.848;2023-04-01T12:00:14;2.00;;;0.30;;
42018;SDS011;27703;51.980;5.848;2023-04-01T12:03:02;0.98;;;0.28;;
42018;SDS011;27703;51.980;5.848;2023-04-01T12:05:58;0.60;;;0.20;;
42018;SDS011;27703;51.980;5.848;2023-04-01T12:09:34;0.45;;;0.20;;
42018;SDS011;27703;51.980;5.848;2023-04-01T12:16:51;0.80;;;0.30;;
42018;SDS011;27703;51.980;5.848;2023-04-01T12:19:35;0.77;;;0.20;;
42018;SDS011;27703;51.980;5.848;2023-04-01T12:22:28;0.63;;;0.20;;
42018;SDS011;27703;51.980;5.848;2023-04-01T12:25:22;0.43;;;0.10;;
42018;SDS011;27703;51.980;5.848;2023-04-01T12:28:06;0.43;;;0.10;;
42018;SDS011;27703;51.980;5.848;2023-04-01T12:30:50;0.77;;;0.30;;
42018;SDS011;27703;51.980;5.848;2023-04-01T12:47:47;1.90;;;0.75;;
42018;SDS011;27703;51.980;5.848;2023-04-01T12:50:31;1.00;;;0.50;;
42018;SDS011;27703;51.980;5.848;2023-04-01T12:53:30;1.33;;;0.50;;
42018;SDS011;27703;51.980;5.848;2023-04-01T12:56:22;1.42;;;0.50;;
42018;SDS011;27703;51.980;5.848;2023-04-01T13:05:01;1.50;;;0.67;;
42018;SDS011;27703;51.980;5.848;2023-04-01T13:13:18;1.38;;;0.60;;
42018;SDS011;27703;51.980;5.848;2023-04-01T13:16:01;1.35;;;0.52;;
42018;SDS011;27703;51.980;5.848;2023-04-01T13:18:40;1.00;;;0.50;;
42018;SDS011;27703;51.980;5.848;2023-04-01T13:24:08;1.60;;;0.70;;
42018;SDS011;27703;51.980;5.848;2023-04-01T13:29:43;1.13;;;0.43;;
42018;SDS011;27703;51.980;5.848;2023-04-01T13:32:29;0.85;;;0.40;;
42018;SDS011;27703;51.980;5.848;2023-04-01T13:35:52;2.15;;;0.50;;
42018;SDS011;27703;51.980;5.848;2023-04-01T13:40:40;1.88;;;0.60;;
42018;SDS011;27703;51.980;5.848;2023-04-01T13:43:24;1.20;;;0.50;;
42018;SDS011;27703;51.980;5.848;2023-04-01T14:02:41;0.55;;;0.30;;
42018;SDS011;27703;51.980;5.848;2023-04-01T14:08:09;0.68;;;0.30;;
42018;SDS011;27703;51.980;5.848;2023-04-01T14:11:02;0.57;;;0.20;;
42018;SDS011;27703;51.980;5.848;2023-04-01T14:19:20;0.85;;;0.30;;
42018;SDS011;27703;51.980;5.848;2023-04-01T14:22:33;0.63;;;0.22;;
42018;SDS011;27703;51.980;5.848;2023-04-01T14:25:22;0.93;;;0.32;;
42018;SDS011;27703;51.980;5.848;2023-04-01T14:31:15;1.20;;;0.40;;
42018;SDS011;27703;51.980;5.848;2023-04-01T14:48:07;1.05;;;0.30;;
42018;SDS011;27703;51.980;5.848;2023-04-01T14:50:51;0.90;;;0.30;;
42018;SDS011;27703;51.980;5.848;2023-04-01T14:55:58;1.00;;;0.30;;
42018;SDS011;27703;51.980;5.848;2023-04-01T14:58:42;1.80;;;0.32;;
42018;SDS011;27703;51.980;5.848;2023-04-01T15:01:22;2.25;;;0.40;;
42018;SDS011;27703;51.980;5.848;2023-04-01T15:14:57;1.75;;;0.30;;
42018;SDS011;27703;51.980;5.848;2023-04-01T15:25:45;1.10;;;0.40;;
42018;SDS011;27703;51.980;5.848;2023-04-01T15:39:51;1.52;;;0.70;;
42018;SDS011;27703;51.980;5.848;2023-04-01T15:47:42;2.40;;;1.50;;
42018;SDS011;27703;51.980;5.848;2023-04-01T15:50:41;2.70;;;1.40;;
42018;SDS011;27703;51.980;5.848;2023-04-01T16:07:03;1.77;;;1.13;;
42018;SDS011;27703;51.980;5.848;2023-04-01T16:23:29;1.58;;;1.05;;
42018;SDS011;27703;51.980;5.848;2023-04-01T16:34:18;2.45;;;1.15;;
42018;SDS011;27703;51.980;5.848;2023-04-01T16:36:52;2.13;;;0.80;;
42018;SDS011;27703;51.980;5.848;2023-04-01T16:39:46;1.60;;;0.95;;
42018;SDS011;27703;51.980;5.848;2023-04-01T16:47:40;2.13;;;1.20;;
42018;SDS011;27703;51.980;5.848;2023-04-01T16:50:20;2.47;;;1.65;;
42018;SDS011;27703;51.980;5.848;2023-04-01T16:55:46;1.92;;;1.20;;
42018;SDS011;27703;51.980;5.848;2023-04-01T16:58:22;1.90;;;1.45;;
42018;SDS011;27703;51.980;5.848;2023-04-01T17:03:43;1.85;;;1.38;;
42018;SDS011;27703;51.980;5.848;2023-04-01T17:12:19;2.40;;;1.65;;
42018;SDS011;27703;51.980;5.848;2023-04-01T17:20:55;2.53;;;1.00;;
42018;SDS011;27703;51.980;5.848;2023-04-01T17:23:43;2.78;;;1.52;;
42018;SDS011;27703;51.980;5.848;2023-04-01T17:29:18;1.63;;;0.98;;
42018;SDS011;27703;51.980;5.848;2023-04-01T17:37:45;3.20;;;1.98;;
42018;SDS011;27703;51.980;5.848;2023-04-01T17:40:34;2.50;;;1.30;;
42018;SDS011;27703;51.980;5.848;2023-04-01T17:46:01;1.90;;;1.35;;
42018;SDS011;27703;51.980;5.848;2023-04-01T17:48:47;3.72;;;1.08;;
42018;SDS011;27703;51.980;5.848;2023-04-01T17:51:35;2.25;;;1.40;;
42018;SDS011;27703;51.980;5.848;2023-04-01T18:13:30;2.75;;;1.77;;
42018;SDS011;27703;51.980;5.848;2023-04-01T18:16:11;1.90;;;1.42;;
42018;SDS011;27703;51.980;5.848;2023-04-01T18:21:43;1.95;;;1.75;;
42018;SDS011;27703;51.980;5.848;2023-04-01T18:24:20;1.98;;;1.77;;
42018;SDS011;27703;51.980;5.848;2023-04-01T18:27:02;2.63;;;1.83;;
42018;SDS011;27703;51.980;5.848;2023-04-01T18:29:37;2.15;;;1.83;;
42018;SDS011;27703;51.980;5.848;2023-04-01T18:32:21;3.28;;;1.58;;
42018;SDS011;27703;51.980;5.848;2023-04-01T18:35:14;2.50;;;1.75;;
42018;SDS011;27703;51.980;5.848;2023-04-01T18:38:00;3.45;;;2.72;;
42018;SDS011;27703;51.980;5.848;2023-04-01T18:40:48;2.55;;;2.35;;
42018;SDS011;27703;51.980;5.848;2023-04-01T18:44:24;2.88;;;2.58;;
42018;SDS011;27703;51.980;5.848;2023-04-01T18:49:21;2.85;;;2.65;;
42018;SDS011;27703;51.980;5.848;2023-04-01T18:55:18;3.45;;;3.10;;
42018;SDS011;27703;51.980;5.848;2023-04-01T18:57:54;5.05;;;4.65;;
42018;SDS011;27703;51.980;5.848;2023-04-01T19:03:55;4.63;;;4.22;;
42018;SDS011;27703;51.980;5.848;2023-04-01T19:06:35;3.75;;;3.45;;
42018;SDS011;27703;51.980;5.848;2023-04-01T19:09:28;3.88;;;3.58;;
42018;SDS011;27703;51.980;5.848;2023-04-01T19:25:26;3.25;;;2.95;;
42018;SDS011;27703;51.980;5.848;2023-04-01T19:28:03;3.95;;;3.55;;
42018;SDS011;27703;51.980;5.848;2023-04-01T19:30:51;3.45;;;3.15;;
42018;SDS011;27703;51.980;5.848;2023-04-01T19:33:54;4.57;;;4.18;;
42018;SDS011;27703;51.980;5.848;2023-04-01T19:39:36;4.95;;;4.45;;
42018;SDS011;27703;51.980;5.848;2023-04-01T19:45:23;3.63;;;3.33;;
42018;SDS011;27703;51.980;5.848;2023-04-01T19:56:19;2.85;;;2.55;;
42018;SDS011;27703;51.980;5.848;2023-04-01T19:58:53;4.13;;;3.65;;
42018;SDS011;27703;51.980;5.848;2023-04-01T20:01:22;3.53;;;2.95;;
42018;SDS011;27703;51.980;5.848;2023-04-01T20:03:54;2.85;;;2.65;;
42018;SDS011;27703;51.980;5.848;2023-04-01T20:06:35;4.65;;;4.25;;
42018;SDS011;27703;51.980;5.848;2023-04-01T20:15:04;4.70;;;4.30;;
42018;SDS011;27703;51.980;5.848;2023-04-01T20:17:47;4.95;;;4.45;;
42018;SDS011;27703;51.980;5.848;2023-04-01T20:20:20;4.47;;;4.07;;
42018;SDS011;27703;51.980;5.848;2023-04-01T20:22:55;5.13;;;4.57;;
42018;SDS011;27703;51.980;5.848;2023-04-01T20:25:43;4.38;;;3.97;;
42018;SDS011;27703;51.980;5.848;2023-04-01T20:33:49;5.43;;;4.93;;
42018;SDS011;27703;51.980;5.848;2023-04-01T20:36:36;4.90;;;4.50;;
42018;SDS011;27703;51.980;5.848;2023-04-01T20:44:46;6.70;;;6.10;;
42018;SDS011;27703;51.980;5.848;2023-04-01T20:47:49;6.53;;;5.75;;
42018;SDS011;27703;51.980;5.848;2023-04-01T20:58:46;7.40;;;6.70;;
42018;SDS011;27703;51.980;5.848;2023-04-01T21:01:20;6.82;;;6.03;;
42018;SDS011;27703;51.980;5.848;2023-04-01T21:23:11;7.80;;;7.00;;
42018;SDS011;27703;51.980;5.848;2023-04-01T21:29:13;7.13;;;6.53;;
42018;SDS011;27703;51.980;5.848;2023-04-01T21:31:59;7.25;;;6.55;;
42018;SDS011;27703;51.980;5.848;2023-04-01T21:37:52;6.18;;;5.68;;
42018;SDS011;27703;51.980;5.848;2023-04-01T21:40:35;5.78;;;5.28;;
42018;SDS011;27703;51.980;5.848;2023-04-01T21:43:40;6.88;;;5.63;;
42018;SDS011;27703;51.980;5.848;2023-04-01T21:46:41;7.53;;;6.32;;
42018;SDS011;27703;51.980;5.848;2023-04-01T21:54:47;5.32;;;4.82;;
42018;SDS011;27703;51.980;5.848;2023-04-01T22:00:38;5.10;;;4.63;;
42018;SDS011;27703;51.980;5.848;2023-04-01T22:06:54;5.38;;;4.85;;
42018;SDS011;27703;51.980;5.848;2023-04-01T22:12:35;4.95;;;4.45;;
42018;SDS011;27703;51.980;5.848;2023-04-01T22:17:58;4.93;;;4.45;;
42018;SDS011;27703;51.980;5.848;2023-04-01T22:26:09;8.02;;;7.22;;
42018;SDS011;27703;51.980;5.848;2023-04-01T22:31:25;6.03;;;5.43;;
42018;SDS011;27703;51.980;5.848;2023-04-01T22:39:03;7.15;;;5.60;;
42018;SDS011;27703;51.980;5.848;2023-04-01T22:44:36;5.53;;;5.03;;
42018;SDS011;27703;51.980;5.848;2023-04-01T22:49:57;4.75;;;4.35;;
42018;SDS011;27703;51.980;5.848;2023-04-01T22:55:03;5.07;;;4.57;;
42018;SDS011;27703;51.980;5.848;2023-04-01T22:57:54;5.82;;;5.25;;
42018;SDS011;27703;51.980;5.848;2023-04-01T23:00:39;6.15;;;4.70;;
42018;SDS011;27703;51.980;5.848;2023-04-01T23:03:21;4.55;;;4.15;;
42018;SDS011;27703;51.980;5.848;2023-04-01T23:05:54;5.10;;;4.70;;
42018;SDS011;27703;51.980;5.848;2023-04-01T23:11:06;5.80;;;5.20;;
42018;SDS011;27703;51.980;5.848;2023-04-01T23:16:43;7.68;;;5.90;;
42018;SDS011;27703;51.980;5.848;2023-04-01T23:27:47;6.40;;;5.80;;
42018;SDS011;27703;51.980;5.848;2023-04-01T23:38:18;8.32;;;7.38;;
42018;SDS011;27703;51.980;5.848;2023-04-01T23:40:47;9.25;;;8.27;;
42018;SDS011;27703;51.980;5.848;2023-04-01T23:43:35;9.93;;;8.35;;
42018;SDS011;27703;51.980;5.848;2023-04-01T23:46:03;8.73;;;7.88;;
42018;SDS011;27703;51.980;5.848;2023-04-01T23:48:35;7.85;;;7.13;;
42018;SDS011;27703;51.980;5.848;2023-04-01T23:51:04;8.95;;;8.02;;
42018;SDS011;27703;51.980;5.848;2023-04-01T23:53:43;7.38;;;6.22;;
42018;SDS011;27703;51.980;5.848;2023-04-01T23:56:10;7.63;;;6.68;;
